Time;durP1;ratioP1;P1;durP2;ratioP2;P2;SDS_P1;SDS_P2;PMS_P1;PMS_P2;Temp;Humidity;BMP_temperature;BMP_pressure;BME280_temperature;BME280_humidity;BME280_pressure;Samples;Min_cycle;Max_cycle;Signal;HPM_P1;HPM_P2
2022/11/28 00:01:40;;;;;;;23.13;11.80;;;10.80;90.70;;;;;;6212763;23;20570;-78
2022/11/28 00:04:09;;;;;;;24.47;10.87;;;10.80;90.70;;;;;;6212452;23;20492;-78
2022/11/28 00:06:38;;;;;;;25.38;11.60;;;10.80;90.70;;;;;;6213054;23;20388;-79
2022/11/28 00:09:07;;;;;;;24.20;11.60;;;10.70;90.70;;;;;;6215351;23;20221;-79
2022/11/28 00:11:36;;;;;;;23.23;11.23;;;10.80;90.50;;;;;;6215211;23;20229;-79
2022/11/28 00:14:04;;;;;;;23.83;11.07;;;10.80;90.80;;;;;;6213655;23;20299;-79
2022/11/28 00:16:33;;;;;;;22.63;11.30;;;10.80;90.70;;;;;;6214175;23;20175;-79
2022/11/28 00:19:04;;;;;;;22.90;10.93;;;10.80;90.70;;;;;;6214672;23;20210;-79
2022/11/28 00:21:33;;;;;;;24.80;12.30;;;10.80;90.70;;;;;;6213630;23;20496;-79
2022/11/28 00:24:01;;;;;;;25.17;11.90;;;10.80;90.60;;;;;;6213785;23;20175;-79
2022/11/28 00:26:33;;;;;;;25.33;12.23;;;10.80;90.60;;;;;;6214679;23;20175;-79
2022/11/28 00:29:02;;;;;;;25.23;11.20;;;10.80;90.60;;;;;;6209579;23;20171;-80
2022/11/28 00:31:32;;;;;;;25.17;12.83;;;10.80;90.60;;;;;;6213662;23;20559;-80
2022/11/28 00:34:02;;;;;;;27.10;12.30;;;10.80;90.50;;;;;;6211566;23;20205;-79
2022/11/28 00:36:31;;;;;;;25.93;11.83;;;10.90;90.50;;;;;;6210381;23;20183;-79
2022/11/28 00:38:59;;;;;;;27.90;12.33;;;10.90;90.50;;;;;;6213442;23;20175;-80
2022/11/28 00:41:30;;;;;;;26.93;13.33;;;10.90;90.50;;;;;;6212438;23;20179;-81
2022/11/28 00:43:58;;;;;;;25.30;12.60;;;10.90;90.50;;;;;;6212751;23;20156;-81
2022/11/28 00:46:27;;;;;;;26.13;12.33;;;10.90;90.50;;;;;;6212786;23;20171;-80
2022/11/28 00:48:57;;;;;;;28.37;12.67;;;10.90;90.50;;;;;;6214095;23;20225;-80
2022/11/28 00:51:28;;;;;;;23.73;11.13;;;10.90;90.40;;;;;;6211863;23;20195;-81
2022/11/28 00:53:59;;;;;;;29.20;13.03;;;10.90;90.50;;;;;;6212774;23;20217;-82
2022/11/28 00:56:28;;;;;;;24.27;11.73;;;10.90;90.40;;;;;;6213944;23;20160;-79
2022/11/28 00:58:57;;;;;;;25.63;12.07;;;10.90;90.40;;;;;;6213408;23;20175;-81
2022/11/28 01:01:28;;;;;;;27.03;12.27;;;10.90;90.40;;;;;;6213724;23;20175;-80
2022/11/28 01:03:59;;;;;;;25.57;12.80;;;10.90;90.30;;;;;;6212197;23;20155;-78
2022/11/28 01:06:31;;;;;;;24.70;12.13;;;10.90;90.30;;;;;;6213407;23;20159;-79
2022/11/28 01:09:00;;;;;;;27.77;12.40;;;10.90;90.30;;;;;;6211219;23;20159;-79
2022/11/28 01:11:30;;;;;;;29.77;12.77;;;10.90;90.30;;;;;;6214313;23;20175;-79
2022/11/28 01:14:00;;;;;;;26.63;11.63;;;10.90;90.20;;;;;;6212729;23;20206;-80
2022/11/28 01:16:29;;;;;;;27.03;12.50;;;10.90;90.20;;;;;;6212863;23;20170;-80
2022/11/28 01:18:57;;;;;;;26.27;11.07;;;11.00;90.20;;;;;;6213032;23;20202;-80
2022/11/28 01:21:26;;;;;;;25.73;11.60;;;11.00;90.20;;;;;;6214170;23;20536;-80
2022/11/28 01:23:55;;;;;;;24.57;11.43;;;11.00;90.20;;;;;;6211406;23;20651;-79
2022/11/28 01:26:26;;;;;;;27.33;13.17;;;11.00;90.10;;;;;;6213990;23;20175;-78
2022/11/28 01:28:55;;;;;;;26.07;12.30;;;11.00;90.10;;;;;;6210958;23;20162;-80
2022/11/28 01:31:25;;;;;;;24.67;13.07;;;10.90;90.00;;;;;;6213141;23;20174;-81
2022/11/28 01:33:54;;;;;;;24.97;11.53;;;10.90;90.10;;;;;;6211534;23;20491;-81
2022/11/28 01:36:23;;;;;;;26.00;12.57;;;10.90;90.00;;;;;;6211297;23;20198;-80
2022/11/28 01:38:52;;;;;;;23.97;11.83;;;11.00;90.10;;;;;;6212475;23;20179;-79
2022/11/28 01:41:24;;;;;;;23.73;11.30;;;11.00;90.10;;;;;;6211327;23;20233;-80
2022/11/28 01:44:16;;;;;;;26.57;12.30;;;11.00;90.40;;;;;;6212468;23;20167;-80
2022/11/28 01:46:44;;;;;;;24.77;11.87;;;11.00;90.10;;;;;;6207354;23;20175;-80
2022/11/28 01:49:18;;;;;;;24.37;11.67;;;10.90;90.10;;;;;;6213637;23;20644;-80
2022/11/28 01:51:49;;;;;;;26.33;11.30;;;10.90;90.00;;;;;;6212886;23;20738;-79
2022/11/28 01:54:20;;;;;;;25.70;12.70;;;10.90;90.10;;;;;;6212482;23;20167;-79
2022/11/28 01:56:55;;;;;;;25.93;12.27;;;10.90;90.10;;;;;;6211180;23;20530;-79
2022/11/28 01:59:26;;;;;;;25.10;12.07;;;10.80;90.10;;;;;;6214068;23;20611;-80
2022/11/28 02:01:54;;;;;;;24.67;12.40;;;10.80;90.20;;;;;;6212658;23;20159;-80
2022/11/28 02:04:25;;;;;;;25.20;11.97;;;10.80;90.20;;;;;;6212206;23;20206;-80
2022/11/28 02:06:54;;;;;;;29.97;14.33;;;10.80;90.30;;;;;;6211604;23;20756;-80
2022/11/28 02:09:22;;;;;;;25.83;12.23;;;10.80;90.50;;;;;;6213824;23;20512;-79
2022/11/28 02:12:14;;;;;;;29.77;13.13;;;10.70;90.50;;;;;;6213865;23;20629;-78
2022/11/28 02:15:03;;;;;;;25.20;12.17;;;10.70;90.50;;;;;;6214191;23;20187;-79
2022/11/28 02:17:44;;;;;;;23.53;12.03;;;10.70;90.70;;;;;;6215924;23;20213;-79
2022/11/28 02:20:43;;;;;;;25.33;11.80;;;10.70;90.70;;;;;;6216675;23;20163;-79
2022/11/28 02:23:16;;;;;;;25.97;12.43;;;10.60;90.80;;;;;;6213948;23;20167;-79
2022/11/28 02:26:35;;;;;;;25.50;11.57;;;10.60;90.70;;;;;;6214646;23;20155;-80
2022/11/28 02:29:42;;;;;;;29.37;12.13;;;10.60;90.80;;;;;;6138401;23;20557;-79
2022/11/28 02:32:17;;;;;;;27.27;12.73;;;10.60;90.80;;;;;;6211223;23;20234;-80
2022/11/28 02:34:55;;;;;;;26.73;12.85;;;10.60;90.80;;;;;;6213121;23;20387;-77
2022/11/28 02:37:41;;;;;;;24.17;11.47;;;10.60;90.90;;;;;;6215060;23;20191;-79
2022/11/28 02:40:20;;;;;;;26.23;11.27;;;10.60;90.90;;;;;;6213992;23;20671;-79
2022/11/28 02:42:59;;;;;;;25.63;11.70;;;10.60;90.90;;;;;;6212650;23;20231;-79
2022/11/28 02:45:32;;;;;;;21.60;10.60;;;10.60;90.80;;;;;;6211800;23;20167;-79
2022/11/28 02:48:07;;;;;;;23.00;11.70;;;10.50;90.80;;;;;;6215094;23;20601;-80
2022/11/28 02:50:41;;;;;;;24.43;10.63;;;10.50;90.70;;;;;;6213449;23;20170;-78
2022/11/28 02:53:13;;;;;;;23.23;10.60;;;10.50;90.80;;;;;;6212260;23;20160;-78
2022/11/28 02:55:43;;;;;;;25.40;11.23;;;10.50;90.70;;;;;;6213907;23;20182;-78
2022/11/28 02:58:12;;;;;;;26.00;11.47;;;10.50;90.70;;;;;;6214690;23;20155;-79
2022/11/28 03:00:42;;;;;;;21.93;10.27;;;10.50;90.70;;;;;;6209738;23;20175;-79
2022/11/28 03:03:42;;;;;;;23.17;10.60;;;10.50;90.70;;;;;;6214170;23;20159;-80
2022/11/28 03:06:18;;;;;;;24.17;11.13;;;10.50;90.70;;;;;;6214289;23;20156;-80
2022/11/28 03:09:09;;;;;;;21.67;10.53;;;10.40;90.60;;;;;;6215254;23;20159;-81
2022/11/28 03:11:49;;;;;;;22.87;10.60;;;10.40;90.60;;;;;;6213677;23;20532;-79
2022/11/28 03:14:28;;;;;;;21.33;10.40;;;10.40;90.70;;;;;;6213784;23;20166;-81
2022/11/28 03:17:06;;;;;;;23.30;10.30;;;10.40;90.60;;;;;;6212972;23;20698;-80
2022/11/28 03:19:40;;;;;;;23.00;10.50;;;10.50;90.60;;;;;;6215103;23;20213;-79
2022/11/28 03:22:17;;;;;;;19.07;9.63;;;10.50;90.60;;;;;;6213950;23;20608;-80
2022/11/28 03:24:50;;;;;;;24.23;10.63;;;10.40;90.50;;;;;;6210587;23;20503;-79
2022/11/28 03:27:24;;;;;;;20.70;10.87;;;10.50;90.50;;;;;;6213400;23;20190;-80
2022/11/28 03:29:55;;;;;;;22.43;10.20;;;10.50;90.60;;;;;;6213810;23;20167;-80
2022/11/28 03:32:28;;;;;;;23.87;11.33;;;10.50;90.50;;;;;;6214759;23;20174;-81
2022/11/28 03:35:03;;;;;;;19.80;10.30;;;10.50;90.50;;;;;;6212897;23;20167;-79
2022/11/28 03:37:35;;;;;;;20.83;9.97;;;10.50;90.50;;;;;;6211951;23;20155;-80
2022/11/28 03:40:08;;;;;;;22.03;10.57;;;10.50;90.40;;;;;;6213442;23;20163;-80
2022/11/28 03:42:41;;;;;;;19.23;10.17;;;10.50;90.40;;;;;;6212327;23;20599;-79
2022/11/28 03:45:15;;;;;;;20.40;9.73;;;10.50;90.40;;;;;;6212784;23;20155;-80
2022/11/28 03:47:47;;;;;;;20.53;10.10;;;10.50;90.40;;;;;;6214163;23;20163;-79
2022/11/28 03:50:20;;;;;;;22.37;9.90;;;10.50;90.40;;;;;;6214366;23;20217;-79
2022/11/28 03:52:53;;;;;;;21.53;10.10;;;10.60;90.40;;;;;;6213843;23;20156;-80
2022/11/28 03:55:27;;;;;;;20.43;9.70;;;10.60;90.40;;;;;;6211119;23;20163;-79
2022/11/28 03:58:04;;;;;;;19.37;10.33;;;10.60;90.40;;;;;;6211601;23;20237;-81
2022/11/28 04:00:36;;;;;;;23.20;11.23;;;10.50;90.30;;;;;;6214939;23;20675;-80
2022/11/28 04:03:11;;;;;;;22.43;11.33;;;10.50;90.20;;;;;;6214561;23;20163;-77
2022/11/28 04:05:47;;;;;;;22.00;10.80;;;10.50;90.10;;;;;;6213137;23;20178;-78
2022/11/28 04:08:19;;;;;;;24.80;11.30;;;10.50;90.20;;;;;;6214153;23;20218;-79
2022/11/28 04:10:55;;;;;;;24.53;10.73;;;10.50;90.10;;;;;;6214988;23;20160;-78
2022/11/28 04:13:29;;;;;;;27.80;11.30;;;10.50;90.10;;;;;;6215126;23;20209;-79
2022/11/28 04:16:05;;;;;;;25.63;11.83;;;10.50;90.00;;;;;;6213543;23;20182;-79
2022/11/28 04:18:43;;;;;;;24.87;11.90;;;10.50;90.00;;;;;;6214656;23;20238;-79
2022/11/28 04:21:20;;;;;;;22.67;11.97;;;10.50;90.00;;;;;;6213935;23;20494;-79
2022/11/28 04:23:49;;;;;;;29.67;12.80;;;10.50;90.00;;;;;;6210867;23;20670;-78
2022/11/28 04:26:22;;;;;;;26.73;12.87;;;10.40;90.00;;;;;;6212450;23;20539;-78
2022/11/28 04:28:52;;;;;;;25.43;12.47;;;10.40;90.00;;;;;;6212006;23;20242;-79
2022/11/28 04:31:23;;;;;;;30.90;13.97;;;10.40;90.00;;;;;;6213075;23;20202;-79
2022/11/28 04:33:56;;;;;;;29.30;13.20;;;10.40;90.40;;;;;;6211771;23;20160;-78
2022/11/28 04:36:27;;;;;;;30.37;13.87;;;10.40;90.00;;;;;;6212957;23;20183;-78
2022/11/28 04:38:58;;;;;;;26.30;12.23;;;10.40;89.90;;;;;;6213703;23;20160;-78
2022/11/28 04:41:30;;;;;;;31.13;13.57;;;10.30;89.70;;;;;;6212845;23;20539;-78
2022/11/28 04:44:06;;;;;;;32.90;13.67;;;10.30;89.80;;;;;;6212134;23;20159;-80
2022/11/28 04:46:40;;;;;;;32.67;13.83;;;10.30;89.80;;;;;;6211965;23;20166;-79
2022/11/28 04:49:08;;;;;;;27.80;13.07;;;10.30;90.00;;;;;;6211974;23;20158;-79
2022/11/28 04:51:45;;;;;;;31.60;14.70;;;10.20;90.00;;;;;;6213244;23;20257;-77
2022/11/28 04:54:19;;;;;;;26.97;13.03;;;10.20;90.00;;;;;;6214350;23;20159;-77
2022/11/28 04:56:52;;;;;;;28.07;14.03;;;10.20;90.00;;;;;;6213115;23;20705;-77
2022/11/28 04:59:25;;;;;;;31.23;14.53;;;10.10;90.00;;;;;;6212631;23;20156;-78
2022/11/28 05:01:57;;;;;;;33.47;13.77;;;10.10;90.10;;;;;;6213056;23;20155;-78
2022/11/28 05:04:25;;;;;;;32.57;15.47;;;10.10;90.00;;;;;;6213933;23;20166;-77
2022/11/28 05:07:03;;;;;;;27.43;12.47;;;10.10;90.10;;;;;;6214763;23;20225;-77
2022/11/28 05:09:31;;;;;;;28.43;13.40;;;10.10;90.10;;;;;;6211296;23;20166;-77
2022/11/28 05:11:59;;;;;;;34.67;15.27;;;10.10;90.00;;;;;;6212855;23;20183;-77
2022/11/28 05:14:28;;;;;;;30.97;13.80;;;10.20;90.00;;;;;;6212244;23;20246;-78
2022/11/28 05:16:56;;;;;;;33.50;14.77;;;10.10;90.40;;;;;;6212225;23;20195;-78
2022/11/28 05:19:24;;;;;;;32.13;15.37;;;10.10;90.00;;;;;;6212047;23;20175;-78
2022/11/28 05:21:53;;;;;;;30.20;14.43;;;10.20;90.00;;;;;;6212512;23;20175;-78
2022/11/28 05:24:22;;;;;;;36.93;14.87;;;10.20;90.00;;;;;;6211630;23;20175;-80
2022/11/28 05:26:57;;;;;;;31.57;13.90;;;10.20;89.90;;;;;;6212095;23;20155;-78
2022/11/28 05:29:26;;;;;;;29.60;14.13;;;10.20;89.80;;;;;;6209715;23;20236;-79
2022/11/28 05:31:54;;;;;;;33.07;14.40;;;10.20;89.90;;;;;;6213128;23;20175;-79
2022/11/28 05:34:22;;;;;;;34.10;14.33;;;10.20;90.00;;;;;;6214322;23;20521;-78
2022/11/28 05:36:51;;;;;;;34.50;15.97;;;10.20;90.00;;;;;;6212131;23;20219;-78
2022/11/28 05:39:19;;;;;;;34.60;14.97;;;10.20;90.00;;;;;;6213636;23;20175;-78
2022/11/28 05:41:48;;;;;;;31.93;14.47;;;10.20;89.90;;;;;;6213320;23;20175;-79
2022/11/28 05:44:17;;;;;;;29.97;15.03;;;10.20;89.90;;;;;;6213231;23;20175;-79
2022/11/28 05:46:51;;;;;;;30.97;16.10;;;10.20;90.00;;;;;;6213971;23;20151;-78
2022/11/28 05:49:20;;;;;;;32.80;15.07;;;10.20;89.70;;;;;;6214572;23;20199;-79
2022/11/28 05:51:48;;;;;;;32.03;14.90;;;10.20;89.40;;;;;;6215467;23;20199;-78
2022/11/28 05:54:17;;;;;;;35.53;15.53;;;10.20;89.30;;;;;;6215737;23;20229;-77
2022/11/28 05:56:45;;;;;;;33.50;15.53;;;10.20;89.30;;;;;;6215926;23;20245;-78
2022/11/28 05:59:15;;;;;;;35.80;15.40;;;10.20;89.30;;;;;;6215139;23;20245;-78
2022/11/28 06:01:43;;;;;;;37.23;16.37;;;10.10;89.40;;;;;;6214725;23;20187;-79
2022/11/28 06:04:11;;;;;;;37.67;13.93;;;10.10;89.50;;;;;;6215839;23;20175;-77
2022/11/28 06:06:40;;;;;;;30.20;13.77;;;10.10;89.60;;;;;;6216089;23;20222;-77
2022/11/28 06:09:08;;;;;;;30.97;14.50;;;10.10;89.70;;;;;;6215043;23;20179;-77
2022/11/28 06:11:36;;;;;;;32.73;14.70;;;10.10;89.70;;;;;;6215956;23;20171;-79
2022/11/28 06:14:05;;;;;;;32.63;15.13;;;10.10;89.50;;;;;;6215854;23;20697;-78
2022/11/28 06:16:35;;;;;;;31.20;15.47;;;10.10;89.60;;;;;;6215059;23;20262;-78
2022/11/28 06:19:05;;;;;;;38.07;15.57;;;10.10;88.90;;;;;;6214044;23;20195;-79
2022/11/28 06:21:34;;;;;;;33.23;15.00;;;10.00;88.90;;;;;;6214184;23;20178;-78
2022/11/28 06:24:02;;;;;;;32.60;15.73;;;10.00;88.80;;;;;;6214854;23;20175;-78
2022/11/28 06:26:31;;;;;;;30.40;14.43;;;10.00;88.20;;;;;;6214938;23;20178;-78
2022/11/28 06:28:59;;;;;;;34.65;17.70;;;9.90;88.60;;;;;;6213458;23;20414;-78
2022/11/28 06:31:29;;;;;;;32.47;15.53;;;9.90;89.90;;;;;;6214274;23;20179;-78
2022/11/28 06:33:59;;;;;;;33.10;15.93;;;10.00;89.30;;;;;;6215028;23;20230;-78
2022/11/28 06:36:29;;;;;;;32.07;15.13;;;10.00;88.90;;;;;;6213895;23;20628;-78
2022/11/28 06:38:57;;;;;;;34.60;15.80;;;9.90;88.50;;;;;;6213861;23;20295;-77
2022/11/28 06:41:26;;;;;;;35.33;16.37;;;10.00;88.60;;;;;;6214402;23;20198;-77
2022/11/28 06:43:55;;;;;;;35.60;15.47;;;9.90;88.50;;;;;;6214781;23;20179;-77
2022/11/28 06:46:23;;;;;;;28.63;14.53;;;10.00;88.60;;;;;;6213643;23;20183;-78
2022/11/28 06:48:53;;;;;;;28.63;12.57;;;10.00;88.70;;;;;;6215023;23;20178;-78
2022/11/28 06:51:23;;;;;;;30.97;14.10;;;10.00;87.80;;;;;;6213421;23;20207;-78
2022/11/28 06:53:51;;;;;;;29.83;14.90;;;10.00;87.90;;;;;;6212701;23;20391;-77
2022/11/28 06:56:20;;;;;;;28.30;14.00;;;10.00;87.70;;;;;;6215604;23;20183;-78
2022/11/28 06:58:55;;;;;;;25.93;12.33;;;10.00;87.50;;;;;;6214574;23;20191;-78
2022/11/28 07:01:24;;;;;;;24.03;12.07;;;10.00;87.50;;;;;;6214814;23;20229;-79
2022/11/28 07:03:54;;;;;;;25.37;11.47;;;10.00;86.60;;;;;;6214037;23;20203;-78
2022/11/28 07:06:25;;;;;;;23.20;11.83;;;10.00;85.90;;;;;;6216624;23;20170;-79
2022/11/28 07:08:55;;;;;;;23.73;11.30;;;10.00;85.80;;;;;;6215741;23;20156;-78
2022/11/28 07:11:26;;;;;;;21.20;11.20;;;10.00;85.80;;;;;;6213278;23;20174;-77
2022/11/28 07:13:55;;;;;;;24.43;11.57;;;10.00;85.40;;;;;;6210526;23;20163;-78
2022/11/28 07:16:25;;;;;;;24.57;11.77;;;9.90;84.70;;;;;;6213569;23;20175;-76
2022/11/28 07:18:55;;;;;;;22.95;11.90;;;9.90;84.80;;;;;;6214330;23;20403;-77
2022/11/28 07:21:25;;;;;;;23.13;11.13;;;9.90;85.10;;;;;;6216074;23;20175;-78
2022/11/28 07:23:54;;;;;;;21.67;10.53;;;9.90;85.50;;;;;;6215296;23;20597;-79
2022/11/28 07:26:23;;;;;;;21.50;10.00;;;10.00;85.40;;;;;;6214573;23;20171;-77
2022/11/28 07:28:51;;;;;;;22.67;10.63;;;10.00;85.30;;;;;;6215420;23;20222;-80
2022/11/28 07:31:21;;;;;;;21.10;9.90;;;9.90;84.50;;;;;;6216148;23;20194;-78
2022/11/28 07:33:51;;;;;;;22.50;10.87;;;10.00;84.70;;;;;;6214756;23;20179;-78
2022/11/28 07:36:21;;;;;;;23.17;11.50;;;10.00;84.80;;;;;;6213246;23;20182;-78
2022/11/28 07:38:53;;;;;;;19.80;9.67;;;10.00;84.60;;;;;;6216048;23;20254;-79
2022/11/28 07:41:22;;;;;;;22.87;10.83;;;10.00;84.70;;;;;;6214469;23;20160;-78
2022/11/28 07:43:55;;;;;;;22.70;10.87;;;10.00;84.70;;;;;;6214570;23;20598;-78
2022/11/28 07:46:25;;;;;;;20.70;10.67;;;10.10;84.70;;;;;;6213806;23;20210;-80
2022/11/28 07:48:54;;;;;;;21.87;10.10;;;10.00;84.60;;;;;;6214010;23;20202;-79
2022/11/28 07:51:23;;;;;;;24.63;10.63;;;10.10;84.40;;;;;;6209719;23;20223;-78
2022/11/28 07:53:54;;;;;;;24.00;10.47;;;10.10;83.80;;;;;;6210542;23;20175;-78
2022/11/28 07:56:23;;;;;;;22.50;10.70;;;10.10;83.80;;;;;;6213309;23;20171;-77
2022/11/28 07:58:52;;;;;;;21.87;11.67;;;10.10;83.30;;;;;;6210505;23;20434;-79
2022/11/28 08:01:21;;;;;;;21.17;9.80;;;10.10;83.90;;;;;;6214035;23;20443;-77
2022/11/28 08:03:50;;;;;;;22.73;9.80;;;10.20;84.00;;;;;;6213674;23;20179;-77
2022/11/28 08:06:21;;;;;;;17.73;9.77;;;10.20;83.70;;;;;;6214165;23;20467;-77
2022/11/28 08:08:50;;;;;;;21.13;9.53;;;10.20;83.70;;;;;;6212569;23;20538;-77
2022/11/28 08:11:20;;;;;;;22.73;10.20;;;10.20;82.90;;;;;;6213884;23;20643;-75
2022/11/28 08:13:49;;;;;;;22.43;10.60;;;10.30;83.30;;;;;;6213729;23;20159;-77
2022/11/28 08:16:22;;;;;;;22.33;9.07;;;10.20;83.10;;;;;;6211425;23;20169;-76
2022/11/28 08:18:52;;;;;;;22.23;9.43;;;10.30;83.30;;;;;;6212416;23;20183;-78
2022/11/28 08:21:22;;;;;;;24.40;10.73;;;10.30;83.60;;;;;;6212452;23;20226;-78
2022/11/28 08:23:51;;;;;;;22.75;11.85;;;10.30;83.80;;;;;;6212754;23;20732;-79
2022/11/28 08:26:22;;;;;;;22.83;11.10;;;10.30;83.40;;;;;;6214033;23;20171;-76
2022/11/28 08:28:58;;;;;;;21.10;10.63;;;10.30;83.10;;;;;;6214382;23;20613;-76
2022/11/28 08:31:28;;;;;;;22.87;11.23;;;10.30;82.80;;;;;;6214577;23;20647;-76
2022/11/28 08:33:59;;;;;;;25.50;11.00;;;10.30;82.70;;;;;;6212268;23;20242;-76
2022/11/28 08:36:28;;;;;;;26.30;12.17;;;10.40;82.90;;;;;;6212278;23;20485;-75
2022/11/28 08:38:58;;;;;;;23.37;11.07;;;10.40;83.10;;;;;;6212310;23;20277;-76
2022/11/28 08:41:48;;;;;;;21.83;10.83;;;10.40;83.10;;;;;;6213230;23;20171;-78
2022/11/28 08:44:17;;;;;;;22.03;11.00;;;10.40;82.90;;;;;;6213776;23;20179;-76
2022/11/28 08:46:45;;;;;;;18.93;10.13;;;10.50;83.10;;;;;;6212924;23;20170;-75
2022/11/28 08:49:13;;;;;;;23.42;11.60;;;10.50;83.00;;;;;;6212172;23;20380;-79
2022/11/28 08:51:42;;;;;;;21.63;10.83;;;10.60;83.20;;;;;;6212415;23;20219;-78
2022/11/28 08:54:10;;;;;;;20.70;10.07;;;10.60;82.60;;;;;;6212273;23;20175;-80
2022/11/28 08:56:38;;;;;;;23.20;11.27;;;10.60;82.50;;;;;;6213577;23;20167;-77
2022/11/28 08:59:09;;;;;;;23.67;9.37;;;10.70;82.70;;;;;;6213930;23;20656;-77
2022/11/28 09:01:38;;;;;;;26.65;12.13;;;10.60;82.50;;;;;;6213977;23;20387;-77
2022/11/28 09:04:06;;;;;;;24.57;11.00;;;10.70;82.50;;;;;;6215325;23;20179;-78
2022/11/28 09:06:35;;;;;;;25.77;11.90;;;10.70;82.20;;;;;;6214398;23;20189;-77
2022/11/28 09:09:04;;;;;;;25.37;12.60;;;10.70;81.90;;;;;;6215103;23;20171;-76
2022/11/28 09:11:34;;;;;;;19.63;10.77;;;10.70;81.90;;;;;;6214277;23;20175;-76
2022/11/28 09:14:02;;;;;;;23.63;12.55;;;10.80;82.00;;;;;;6214503;23;20930;-76
2022/11/28 09:16:31;;;;;;;24.43;11.70;;;10.80;82.20;;;;;;6214794;23;20174;-76
2022/11/28 09:19:00;;;;;;;22.77;11.00;;;10.80;82.10;;;;;;6213840;23;20198;-76
2022/11/28 09:21:28;;;;;;;22.63;10.40;;;10.80;81.10;;;;;;6213495;23;20175;-76
2022/11/28 09:23:56;;;;;;;20.17;10.07;;;10.80;81.40;;;;;;6214146;23;20603;-76
2022/11/28 09:26:25;;;;;;;23.10;10.30;;;10.90;81.50;;;;;;6216228;23;20170;-76
2022/11/28 09:28:55;;;;;;;19.77;9.77;;;10.90;81.50;;;;;;6215947;23;20174;-78
2022/11/28 09:31:23;;;;;;;19.07;9.93;;;10.90;81.60;;;;;;6216681;23;20174;-78
2022/11/28 09:33:53;;;;;;;21.53;10.27;;;10.90;81.30;;;;;;6216421;23;20186;-79
2022/11/28 09:36:23;;;;;;;21.60;10.27;;;10.90;81.20;;;;;;6216780;23;20202;-78
2022/11/28 09:38:51;;;;;;;20.67;9.70;;;10.90;80.30;;;;;;6216757;23;20187;-78
2022/11/28 09:41:49;;;;;;;22.23;10.57;;;11.00;80.50;;;;;;6216911;23;20174;-77
2022/11/28 09:44:22;;;;;;;21.60;10.27;;;10.90;80.30;;;;;;6197833;23;20178;-78
2022/11/28 09:46:53;;;;;;;21.70;10.60;;;11.00;80.80;;;;;;6217026;23;20159;-78
2022/11/28 09:49:30;;;;;;;19.57;9.77;;;11.00;80.80;;;;;;6216410;23;20210;-77
2022/11/28 09:52:21;;;;;;;22.73;10.60;;;11.10;80.80;;;;;;6214150;23;20394;-80
2022/11/28 09:54:58;;;;;;;21.17;10.03;;;11.10;80.60;;;;;;6215290;23;20373;-79
2022/11/28 09:57:34;;;;;;;20.40;10.20;;;11.00;79.60;;;;;;6216069;23;20160;-80
2022/11/28 10:00:04;;;;;;;20.80;10.17;;;11.00;79.90;;;;;;6214886;23;20214;-79
2022/11/28 10:02:39;;;;;;;18.77;9.43;;;11.00;80.10;;;;;;6216012;23;20171;-79
2022/11/28 10:05:21;;;;;;;25.23;10.10;;;11.10;80.10;;;;;;6216056;23;20159;-77
2022/11/28 10:08:03;;;;;;;22.20;9.93;;;11.10;80.20;;;;;;6214021;23;20159;-78
2022/11/28 10:10:44;;;;;;;20.67;10.50;;;11.10;79.60;;;;;;6213645;23;20182;-78
2022/11/28 10:13:20;;;;;;;23.07;10.67;;;11.20;80.50;;;;;;6215510;23;20225;-80
2022/11/28 10:15:56;;;;;;;23.37;11.37;;;11.20;79.70;;;;;;6214135;23;20213;-79
2022/11/28 10:18:34;;;;;;;24.10;10.73;;;11.30;79.70;;;;;;6214315;23;20159;-78
2022/11/28 10:21:15;;;;;;;21.87;11.50;;;11.30;79.50;;;;;;6215363;23;20478;-78
2022/11/28 10:23:47;;;;;;;21.53;10.90;;;11.40;79.80;;;;;;6216531;23;20163;-78
2022/11/28 10:26:21;;;;;;;23.67;11.30;;;11.50;79.80;;;;;;6215580;23;20163;-77
2022/11/28 10:28:53;;;;;;;19.93;9.90;;;11.50;79.70;;;;;;6214249;23;20159;-80
2022/11/28 10:31:29;;;;;;;18.85;10.05;;;11.60;79.30;;;;;;6212570;23;20383;-78
2022/11/28 10:34:05;;;;;;;18.40;9.30;;;11.70;79.60;;;;;;6214417;23;20159;-78
2022/11/28 10:36:52;;;;;;;19.67;10.53;;;11.70;79.30;;;;;;6213843;23;20234;-80
2022/11/28 10:39:20;;;;;;;22.17;11.17;;;11.70;78.90;;;;;;6214405;23;20632;-81
2022/11/28 10:45:00;;;;;;;22.53;10.33;;;11.80;77.50;;;;;;6214094;23;20210;-79
2022/11/28 10:47:58;;;;;;;17.90;10.07;;;11.80;77.70;;;;;;6214699;23;20217;-78
2022/11/28 10:50:53;;;;;;;18.23;9.23;;;11.80;76.40;;;;;;6214811;23;20195;-80
2022/11/28 10:53:36;;;;;;;16.83;9.80;;;11.80;76.90;;;;;;6216601;23;20162;-78
2022/11/28 10:56:13;;;;;;;19.07;9.53;;;11.80;77.60;;;;;;6214372;23;20174;-79
2022/11/28 10:58:50;;;;;;;23.00;10.03;;;11.90;77.20;;;;;;6216378;23;20529;-79
2022/11/28 11:01:19;;;;;;;19.13;9.93;;;11.90;77.30;;;;;;6214588;23;20182;-78
2022/11/28 11:03:48;;;;;;;17.23;9.03;;;12.00;77.40;;;;;;6214115;23;20519;-79
2022/11/28 11:06:16;;;;;;;19.23;9.13;;;11.90;75.40;;;;;;6213145;23;20175;-79
2022/11/28 11:08:47;;;;;;;22.17;8.90;;;11.90;76.30;;;;;;6214330;23;20175;-77
2022/11/28 11:11:26;;;;;;;15.40;8.40;;;11.80;76.00;;;;;;6215484;23;20163;-77
2022/11/28 11:13:58;;;;;;;17.37;9.23;;;11.80;76.40;;;;;;6216151;23;20155;-78
2022/11/28 11:16:46;;;;;;;16.97;9.53;;;11.80;76.50;;;;;;6213361;23;20159;-79
2022/11/28 11:19:24;;;;;;;18.63;9.23;;;11.80;77.20;;;;;;6212699;23;20622;-81
2022/11/28 11:22:05;;;;;;;19.93;9.23;;;11.70;77.30;;;;;;6213450;23;20634;-82
2022/11/28 11:24:35;;;;;;;19.60;8.93;;;11.70;76.70;;;;;;6214006;23;20206;-80
2022/11/28 11:27:07;;;;;;;17.40;9.30;;;11.60;76.50;;;;;;6213732;23;20175;-78
2022/11/28 11:29:37;;;;;;;18.00;8.90;;;11.70;76.90;;;;;;6213854;23;20152;-79
2022/11/28 11:32:20;;;;;;;17.17;9.20;;;11.60;76.70;;;;;;6213141;23;20671;-79
2022/11/28 11:34:49;;;;;;;20.17;10.57;;;11.60;76.80;;;;;;6212268;23;20745;-78
2022/11/28 11:37:21;;;;;;;18.13;9.67;;;11.60;77.40;;;;;;6213231;23;20180;-80
2022/11/28 11:39:52;;;;;;;16.83;8.97;;;11.50;76.90;;;;;;6211405;23;20179;-78
2022/11/28 11:42:22;;;;;;;21.20;9.47;;;11.50;76.90;;;;;;6136557;23;20171;-78
2022/11/28 11:44:50;;;;;;;21.03;9.50;;;11.50;76.30;;;;;;6214295;23;20520;-78
2022/11/28 11:47:19;;;;;;;18.27;9.80;;;11.50;76.30;;;;;;6213873;23;20175;-79
2022/11/28 11:49:48;;;;;;;18.03;8.67;;;11.50;76.30;;;;;;6213546;23;20175;-78
2022/11/28 11:52:23;;;;;;;19.67;8.97;;;11.50;76.30;;;;;;6213438;23;20199;-80
2022/11/28 11:55:01;;;;;;;19.97;9.00;;;11.40;76.30;;;;;;6212614;23;20162;-78
2022/11/28 11:57:35;;;;;;;17.90;8.53;;;11.30;76.30;;;;;;6207730;23;20172;-78
2022/11/28 12:00:06;;;;;;;18.00;9.40;;;11.20;77.10;;;;;;6212492;23;20183;-79
2022/11/28 12:02:39;;;;;;;16.07;8.50;;;11.20;76.70;;;;;;6211545;23;20159;-79
2022/11/28 12:05:13;;;;;;;15.73;8.30;;;11.20;76.70;;;;;;6212312;23;20597;-79
2022/11/28 12:07:50;;;;;;;16.87;8.93;;;11.20;77.10;;;;;;6212850;23;20209;-78
2022/11/28 12:10:24;;;;;;;18.40;9.00;;;11.10;77.00;;;;;;6211153;23;20159;-79
2022/11/28 12:12:55;;;;;;;17.60;8.53;;;11.20;77.20;;;;;;6158649;23;20266;-77
2022/11/28 12:15:33;;;;;;;20.33;9.23;;;11.20;77.40;;;;;;6211721;23;20237;-78
2022/11/28 12:18:14;;;;;;;17.77;8.80;;;11.20;77.20;;;;;;6211091;23;20187;-79
2022/11/28 12:21:06;;;;;;;17.53;9.27;;;11.30;77.50;;;;;;6209692;23;20175;-79
2022/11/28 12:23:53;;;;;;;17.63;8.80;;;11.30;77.40;;;;;;6210957;23;20160;-77
2022/11/28 12:26:31;;;;;;;20.63;9.13;;;11.30;77.20;;;;;;6211515;23;20179;-77
2022/11/28 12:29:13;;;;;;;19.70;8.47;;;11.30;76.80;;;;;;6212650;23;20659;-79
2022/11/28 12:31:51;;;;;;;19.83;9.03;;;11.30;77.20;;;;;;6211515;23;20190;-86
2022/11/28 12:34:30;;;;;;;19.20;8.27;;;11.20;77.20;;;;;;6212305;23;20163;-77
2022/11/28 12:37:08;;;;;;;18.80;8.97;;;11.20;77.60;;;;;;6210600;23;20160;-77
2022/11/28 12:39:47;;;;;;;14.60;8.33;;;11.20;77.60;;;;;;6212205;23;20185;-78
2022/11/28 12:42:29;;;;;;;18.50;8.80;;;11.20;77.60;;;;;;6210508;23;20609;-77
2022/11/28 12:45:30;;;;;;;17.40;8.13;;;11.20;77.50;;;;;;6212569;23;20210;-79
2022/11/28 12:48:09;;;;;;;18.93;8.00;;;11.30;77.80;;;;;;6206422;23;20175;-77
2022/11/28 12:50:39;;;;;;;16.47;7.87;;;11.40;77.80;;;;;;6210851;23;20483;-78
2022/11/28 12:53:39;;;;;;;16.10;8.27;;;11.50;78.10;;;;;;6211045;23;20682;-77
2022/11/28 12:56:20;;;;;;;15.23;7.37;;;11.60;77.80;;;;;;6211504;23;20601;-78
2022/11/28 12:58:58;;;;;;;17.90;7.67;;;11.60;77.50;;;;;;6210367;23;20151;-78
2022/11/28 13:01:52;;;;;;;15.90;8.10;;;11.70;77.00;;;;;;6209654;23;20555;-78
2022/11/28 13:04:38;;;;;;;16.97;7.83;;;11.70;76.90;;;;;;6209260;23;20179;-77